CheckWX is a tool to help pilots better visualize weather data.  It is not intended as a substitute for an official pre-flight weather briefing.

02:47:20 UTC

LFVP TAF
St Pierre Airport
Saint-Pierre, St. Pierre and Miquelon
TAF LFVP 201700Z 2018/2103 10005KT CAVOK BECMG 2019/2021 07015KT BECMG 2100/2102 02015KT 3000 RA BR

Sep-20@
18:00 UTC

Sep-20 @ 18:00 UTC

Sep-20@
19:00 UTC

Sep-20 @ 19:00 UTC

TAF LFVP 201700Z 2018/2103 10005KT CAVOK

Expired

Wind
  • 100° at 5 KTS
Conditions
No significant weather
Cloud Levels
  • No significant clouds

Sep-20@
19:00 UTC

Sep-20 @ 19:00 UTC

Sep-21@
00:00 UTC

Sep-21 @ 00:00 UTC

BECMG 2019/2021 07015KT

Expired

Wind
  • 070° at 15 KTS
Conditions
No significant weather
Cloud Levels
  • No significant clouds

Sep-21@
00:00 UTC

Sep-21 @ 00:00 UTC

Sep-21@
03:00 UTC

Sep-21 @ 03:00 UTC

BECMG 2100/2102 02015KT 3000 RA BR

Becoming

Becoming Conditions expected by Sat, Sep 21, 2019 @ 02:00 UTC

Wind
  • 020° at 15 KTS
Conditions
Rain, Mist
Cloud Levels
  • No significant clouds